Time;durP1;ratioP1;P1;durP2;ratioP2;P2;SDS_P1;SDS_P2;PMS_P1;PMS_P2;Temp;Humidity;BMP_temperature;BMP_pressure;BME280_temperature;BME280_humidity;BME280_pressure;Samples;Min_cycle;Max_cycle;Signal;HPM_P1;HPM_P2
2022/12/01 00:01:14;;;;;;;0.60;0.60;;;;;;;6.90;100.00;99856.63;5134876;27;20194;-65
2022/12/01 00:03:41;;;;;;;0.53;0.53;;;;;;;6.87;100.00;99849.84;5141617;27;20692;-65
2022/12/01 00:06:11;;;;;;;0.50;0.50;;;;;;;6.88;100.00;99858.34;5149236;27;20193;-65
2022/12/01 00:08:39;;;;;;;0.60;0.60;;;;;;;6.88;100.00;99854.09;5134962;27;20214;-65
2022/12/01 00:11:06;;;;;;;0.50;0.50;;;;;;;6.88;100.00;99860.00;5133095;27;20217;-65
2022/12/01 00:13:34;;;;;;;0.53;0.53;;;;;;;6.93;100.00;99851.50;5137041;27;20208;-65
2022/12/01 00:16:09;;;;;;;0.50;0.50;;;;;;;6.94;100.00;99848.09;5134614;27;20217;-65
2022/12/01 00:18:36;;;;;;;0.50;0.50;;;;;;;6.97;100.00;99843.81;5135283;27;20250;-65
2022/12/01 00:21:03;;;;;;;0.60;0.60;;;;;;;7.00;100.00;99841.25;5146196;27;20230;-65
2022/12/01 00:23:30;;;;;;;0.60;0.60;;;;;;;7.02;100.00;99847.16;5152203;27;20202;-65
2022/12/01 00:26:04;;;;;;;0.50;0.50;;;;;;;7.01;100.00;99844.66;5135242;27;20198;-65
2022/12/01 00:28:30;;;;;;;0.63;0.63;;;;;;;7.02;100.00;99852.25;5135217;27;20672;-64
2022/12/01 00:30:58;;;;;;;0.40;0.40;;;;;;;7.01;100.00;99849.75;5132919;27;20209;-65
2022/12/01 00:33:25;;;;;;;0.50;0.50;;;;;;;7.05;100.00;99851.38;5143529;27;20223;-65
2022/12/01 00:35:58;;;;;;;0.60;0.60;;;;;;;7.06;100.00;99848.00;5134790;27;20197;-65
2022/12/01 00:38:25;;;;;;;0.50;0.50;;;;;;;7.03;100.00;99841.22;5150195;27;20246;-65
2022/12/01 00:40:51;;;;;;;0.67;0.67;;;;;;;7.00;100.00;99843.81;5149026;27;20194;-64
2022/12/01 00:43:20;;;;;;;0.50;0.50;;;;;;;7.02;100.00;99847.16;5138107;27;20201;-65
2022/12/01 00:45:46;;;;;;;0.50;0.50;;;;;;;7.05;100.00;99843.75;5134018;27;20244;-64
2022/12/01 00:48:13;;;;;;;0.73;0.73;;;;;;;6.95;100.00;99830.22;5132965;27;20262;-65
2022/12/01 00:50:40;;;;;;;0.57;0.57;;;;;;;7.10;100.00;99840.31;5134611;27;20194;-65
2022/12/01 00:53:07;;;;;;;0.50;0.50;;;;;;;7.07;100.00;99822.50;5133964;27;20198;-65
2022/12/01 00:55:34;;;;;;;0.50;0.50;;;;;;;7.14;100.00;99836.84;5134152;27;20565;-65
2022/12/01 00:58:01;;;;;;;0.70;0.70;;;;;;;7.15;100.00;99833.44;5134040;27;20274;-65
2022/12/01 01:00:29;;;;;;;1.20;1.20;;;;;;;7.12;100.00;99823.28;5134345;27;20243;-64
2022/12/01 01:02:55;;;;;;;0.60;0.60;;;;;;;7.18;100.00;99830.88;5134168;27;20669;-65
2022/12/01 01:05:22;;;;;;;0.50;0.50;;;;;;;7.10;100.00;99830.13;5134318;27;20641;-65
2022/12/01 01:07:49;;;;;;;0.43;0.43;;;;;;;7.11;100.00;99831.78;5130347;27;20282;-65
2022/12/01 01:10:16;;;;;;;0.70;0.70;;;;;;;7.06;100.00;99818.25;5138390;27;20198;-65
2022/12/01 01:12:43;;;;;;;0.50;0.50;;;;;;;7.08;100.00;99816.53;5133444;27;20202;-64
2022/12/01 01:15:10;;;;;;;0.50;0.50;;;;;;;7.15;100.00;99810.50;5134260;27;20202;-65
2022/12/01 01:17:40;;;;;;;0.57;0.57;;;;;;;7.16;100.00;99814.75;5144087;27;20625;-65
2022/12/01 01:20:08;;;;;;;0.60;0.60;;;;;;;7.16;100.00;99808.81;5139132;27;20209;-65
2022/12/01 01:22:35;;;;;;;0.67;0.67;;;;;;;7.09;100.00;99807.16;5132841;27;20194;-65
2022/12/01 01:25:02;;;;;;;0.50;0.50;;;;;;;7.06;100.00;99808.06;5133861;27;20194;-65
2022/12/01 01:27:28;;;;;;;0.50;0.50;;;;;;;7.02;100.00;99806.38;5137957;27;20221;-65
2022/12/01 01:29:55;;;;;;;0.50;0.50;;;;;;;7.03;100.00;99797.88;5142172;27;20206;-65
2022/12/01 01:32:22;;;;;;;0.50;0.50;;;;;;;7.05;100.00;99796.16;5136985;27;20554;-65
2022/12/01 01:34:50;;;;;;;0.60;0.60;;;;;;;7.07;100.00;99799.56;5132890;27;20194;-65
2022/12/01 01:37:17;;;;;;;0.60;0.60;;;;;;;7.10;100.00;99799.53;5133086;27;20190;-65
2022/12/01 01:39:44;;;;;;;0.57;0.57;;;;;;;7.11;100.00;99791.00;5133962;27;20190;-65
2022/12/01 01:42:13;;;;;;;0.60;0.60;;;;;;;7.13;100.00;99799.50;5132497;27;20207;-65
2022/12/01 01:44:52;;;;;;;0.47;0.47;;;;;;;7.11;100.00;99791.00;5133431;27;20185;-65
2022/12/01 01:47:25;;;;;;;0.60;0.60;;;;;;;7.07;100.00;99789.34;5133807;27;20216;-65
2022/12/01 01:49:55;;;;;;;0.63;0.63;;;;;;;7.18;100.00;99789.22;5147545;27;20660;-65
2022/12/01 01:52:23;;;;;;;0.50;0.50;;;;;;;7.26;100.00;99795.97;5144756;27;20211;-65
2022/12/01 01:54:52;;;;;;;0.60;0.60;;;;;;;7.16;100.00;99768.88;5148466;27;20193;-65
2022/12/01 01:57:24;;;;;;;0.63;0.63;;;;;;;7.32;100.00;99798.44;5145447;27;20198;-65
2022/12/01 01:59:55;;;;;;;0.57;0.57;;;;;;;7.30;100.00;99796.78;5131308;27;20669;-65
2022/12/01 02:02:24;;;;;;;0.57;0.57;;;;;;;7.27;100.00;99792.53;5131551;27;20198;-65
2022/12/01 02:04:56;;;;;;;0.70;0.70;;;;;;;7.18;100.00;99786.69;5132624;27;20326;-65
2022/12/01 02:07:24;;;;;;;0.60;0.60;;;;;;;7.28;100.00;99793.38;5130517;27;20228;-65
2022/12/01 02:09:51;;;;;;;0.50;0.50;;;;;;;7.30;100.00;99792.50;5132124;27;20198;-65
2022/12/01 02:12:41;;;;;;;0.70;0.70;;;;;;;7.27;100.00;99795.06;5142237;27;20254;-65
2022/12/01 02:15:24;;;;;;;0.60;0.60;;;;;;;7.26;100.00;99795.97;5130341;27;20259;-65
2022/12/01 02:18:02;;;;;;;0.50;0.50;;;;;;;7.20;100.00;99796.03;5130943;27;20574;-64
2022/12/01 02:20:58;;;;;;;0.70;0.70;;;;;;;7.19;100.00;99789.22;5132983;27;20197;-65
2022/12/01 02:23:59;;;;;;;0.60;0.60;;;;;;;7.12;100.00;99785.03;5140628;27;20189;-65
2022/12/01 02:26:44;;;;;;;0.60;0.60;;;;;;;7.08;100.00;99775.72;5125241;27;20197;-65
2022/12/01 02:29:37;;;;;;;1.13;1.13;;;;;;;7.12;100.00;99782.50;5131828;27;20624;-65
2022/12/01 02:32:16;;;;;;;0.43;0.43;;;;;;;7.12;100.00;99774.84;5132822;27;20197;-65
2022/12/01 02:34:46;;;;;;;0.60;0.60;;;;;;;7.12;100.00;99779.94;5128767;27;20198;-65
2022/12/01 02:37:22;;;;;;;0.50;0.50;;;;;;;7.12;100.00;99772.28;5129922;27;20202;-65
2022/12/01 02:39:55;;;;;;;0.80;0.80;;;;;;;7.11;100.00;99767.22;5133656;27;20197;-66
2022/12/01 02:45:13;;;;;;;0.57;0.57;;;;;;;7.00;100.00;99754.59;5151199;27;20276;-65
2022/12/01 02:47:44;;;;;;;0.50;0.50;;;;;;;7.10;100.00;99763.84;5139018;27;20245;-65
2022/12/01 02:50:13;;;;;;;0.60;0.60;;;;;;;7.16;100.00;99757.81;5128653;27;20194;-64
2022/12/01 02:52:41;;;;;;;0.50;0.50;;;;;;;7.11;100.00;99770.59;5128552;27;20201;-65
2022/12/01 02:55:08;;;;;;;0.60;0.60;;;;;;;7.08;100.00;99765.53;5132261;27;20573;-64
2022/12/01 02:57:35;;;;;;;0.77;0.77;;;;;;;7.08;100.00;99767.22;5135060;27;20789;-65
2022/12/01 03:00:02;;;;;;;0.50;0.50;;;;;;;6.98;100.00;99753.72;5140384;27;20695;-65
2022/12/01 03:02:41;;;;;;;0.63;0.63;;;;;;;7.08;100.00;99765.53;5131440;27;20198;-65
2022/12/01 03:05:17;;;;;;;0.50;0.50;;;;;;;7.04;100.00;99758.81;5140538;27;20604;-65
2022/12/01 03:07:57;;;;;;;0.60;0.60;;;;;;;7.03;100.00;99757.09;5132928;27;20218;-65
2022/12/01 03:10:29;;;;;;;0.50;0.50;;;;;;;7.00;100.00;99763.94;5132048;27;20201;-65
2022/12/01 03:13:07;;;;;;;0.50;0.50;;;;;;;7.01;100.00;99757.97;5130356;27;20198;-65
2022/12/01 03:15:38;;;;;;;0.50;0.50;;;;;;;7.07;100.00;99758.75;5131022;27;20201;-64
2022/12/01 03:18:14;;;;;;;0.60;0.60;;;;;;;7.09;100.00;99762.13;5132037;27;20254;-65
2022/12/01 03:20:48;;;;;;;0.60;0.60;;;;;;;7.08;100.00;99767.22;5131346;27;20193;-65
2022/12/01 03:23:20;;;;;;;0.53;0.53;;;;;;;7.16;100.00;99765.47;5131817;27;20197;-65
2022/12/01 03:25:51;;;;;;;0.50;0.50;;;;;;;7.17;100.00;99760.34;5131586;27;20194;-65
2022/12/01 03:28:22;;;;;;;0.60;0.60;;;;;;;7.10;100.00;99743.44;5131185;27;20213;-64
2022/12/01 03:30:52;;;;;;;0.60;0.60;;;;;;;7.16;100.00;99758.66;5131949;27;20247;-65
2022/12/01 03:33:24;;;;;;;0.50;0.50;;;;;;;7.16;100.00;99752.72;5131663;27;20205;-64
2022/12/01 03:35:58;;;;;;;0.57;0.57;;;;;;;7.20;100.00;99762.88;5131312;27;20202;-65
2022/12/01 03:38:27;;;;;;;0.60;0.60;;;;;;;7.16;100.00;99762.91;5130947;27;20251;-65
2022/12/01 03:40:59;;;;;;;0.60;0.60;;;;;;;7.16;100.00;99758.66;5131339;27;20202;-65
2022/12/01 03:43:31;;;;;;;0.60;0.60;;;;;;;7.20;100.00;99760.31;5130381;27;20618;-65
2022/12/01 03:46:04;;;;;;;0.50;0.50;;;;;;;7.25;100.00;99758.56;5131786;27;20202;-65
2022/12/01 03:48:31;;;;;;;0.57;0.57;;;;;;;7.20;100.00;99765.44;5130218;27;20218;-65
2022/12/01 03:51:06;;;;;;;0.50;0.50;;;;;;;7.25;100.00;99767.91;5131551;27;20227;-65
2022/12/01 03:53:41;;;;;;;0.60;0.60;;;;;;;7.21;100.00;99772.19;5131362;27;20213;-65
2022/12/01 03:56:09;;;;;;;0.70;0.70;;;;;;;7.19;100.00;99767.97;5131570;27;20688;-65
2022/12/01 03:58:41;;;;;;;0.50;0.50;;;;;;;7.16;100.00;99763.75;5146949;27;20250;-65
2022/12/01 04:01:09;;;;;;;0.70;0.70;;;;;;;7.16;100.00;99768.88;5131096;27;20197;-65
2022/12/01 04:03:35;;;;;;;0.40;0.40;;;;;;;7.11;100.00;99762.13;5128841;27;20232;-65
2022/12/01 04:06:04;;;;;;;0.80;0.80;;;;;;;7.09;100.00;99767.22;5137600;27;20261;-65
2022/12/01 04:08:32;;;;;;;0.40;0.40;;;;;;;7.10;100.00;99763.84;5131235;27;20407;-65
2022/12/01 04:10:59;;;;;;;0.50;0.50;;;;;;;7.02;100.00;99746.91;5131198;27;20285;-64
2022/12/01 04:13:25;;;;;;;0.70;0.70;;;;;;;7.10;100.00;99760.44;5129103;27;20726;-66
2022/12/01 04:15:53;;;;;;;0.60;0.60;;;;;;;6.99;100.00;99760.53;5131264;27;20194;-64
2022/12/01 04:18:21;;;;;;;0.60;0.60;;;;;;;7.02;100.00;99765.59;5131320;27;20198;-65
2022/12/01 04:20:49;;;;;;;0.70;0.70;;;;;;;7.12;100.00;99763.78;5130687;27;20237;-64
2022/12/01 04:26:00;;;;;;;0.50;0.50;;;;;;;7.09;100.00;99762.13;5135063;27;20193;-65
2022/12/01 04:28:26;;;;;;;0.40;0.40;;;;;;;7.13;100.00;99766.34;5151951;27;20213;-65
2022/12/01 04:30:53;;;;;;;0.50;0.50;;;;;;;7.18;100.00;99766.28;5149978;27;20942;-65
2022/12/01 04:33:21;;;;;;;0.40;0.40;;;;;;;7.21;100.00;99769.66;5132188;27;20221;-65
2022/12/01 04:35:56;;;;;;;0.60;0.60;;;;;;;7.24;100.00;99771.31;5134030;27;20581;-65
2022/12/01 04:38:24;;;;;;;0.50;0.50;;;;;;;7.24;100.00;99767.06;5133811;27;20712;-65
2022/12/01 04:40:51;;;;;;;0.67;0.67;;;;;;;7.28;100.00;99773.81;5134742;27;20210;-65
2022/12/01 04:43:18;;;;;;;0.60;0.60;;;;;;;7.32;100.00;99775.47;5133994;27;20194;-64
2022/12/01 04:45:45;;;;;;;0.57;0.57;;;;;;;7.38;100.00;99765.22;5134379;27;20208;-65
2022/12/01 04:48:12;;;;;;;0.43;0.43;;;;;;;7.24;100.00;99739.00;5134897;27;20275;-64
2022/12/01 04:50:40;;;;;;;0.50;0.50;;;;;;;7.28;100.00;99755.97;5137258;27;20202;-64
2022/12/01 04:53:07;;;;;;;0.67;0.67;;;;;;;7.47;100.00;99768.50;5132734;27;20258;-65
2022/12/01 04:55:38;;;;;;;0.40;0.40;;;;;;;7.45;100.00;99772.78;5134585;27;20194;-65
2022/12/01 04:58:05;;;;;;;0.70;0.70;;;;;;;7.49;100.00;99770.19;5133950;27;20202;-64
2022/12/01 05:00:32;;;;;;;0.40;0.40;;;;;;;7.46;100.00;99767.69;5134287;27;20202;-65
2022/12/01 05:02:59;;;;;;;0.50;0.50;;;;;;;7.48;100.00;99771.06;5136775;27;20660;-64
2022/12/01 05:05:26;;;;;;;0.60;0.60;;;;;;;7.56;100.00;99773.53;5141584;27;20217;-65
2022/12/01 05:07:52;;;;;;;0.60;0.60;;;;;;;7.54;100.00;99776.06;5131959;27;20577;-65
2022/12/01 05:10:19;;;;;;;0.67;0.67;;;;;;;7.40;100.00;99768.56;5131908;27;20618;-65
2022/12/01 05:12:48;;;;;;;0.40;0.40;;;;;;;7.25;100.00;99758.56;5133551;27;20202;-65
2022/12/01 05:15:15;;;;;;;0.50;0.50;;;;;;;7.28;100.00;99776.38;5134093;27;20228;-65
2022/12/01 05:17:42;;;;;;;0.40;0.40;;;;;;;7.30;100.00;99776.38;5134095;27;20689;-65
2022/12/01 05:23:07;;;;;;;0.60;0.60;;;;;;;7.22;100.00;99778.16;5108254;27;20588;-65
2022/12/01 05:25:36;;;;;;;0.50;0.50;;;;;;;6.99;100.00;99765.63;5133395;27;20198;-65
2022/12/01 05:28:05;;;;;;;0.50;0.50;;;;;;;7.15;100.00;99779.06;5133861;27;20201;-65
2022/12/01 05:30:32;;;;;;;0.60;0.60;;;;;;;7.13;100.00;99776.53;5142658;27;20201;-65
2022/12/01 05:32:59;;;;;;;0.60;0.60;;;;;;;7.18;100.00;99769.69;5132422;27;20202;-65
2022/12/01 05:35:25;;;;;;;0.50;0.50;;;;;;;7.23;100.00;99770.50;5133319;27;21690;-64
2022/12/01 05:37:52;;;;;;;0.50;0.50;;;;;;;7.22;100.00;99773.03;5130494;27;20205;-65
2022/12/01 05:40:19;;;;;;;0.40;0.40;;;;;;;7.13;100.00;99761.25;5132421;27;20190;-65
2022/12/01 05:42:46;;;;;;;0.90;0.90;;;;;;;7.26;100.00;99773.00;5131238;27;20210;-64
2022/12/01 05:45:14;;;;;;;0.47;0.47;;;;;;;7.26;100.00;99777.25;5132288;27;20581;-65
2022/12/01 05:47:41;;;;;;;0.67;0.67;;;;;;;7.15;100.00;99771.41;5138096;27;20193;-65
2022/12/01 05:50:08;;;;;;;0.60;0.60;;;;;;;7.17;100.00;99772.25;5154317;27;20219;-64
2022/12/01 05:52:36;;;;;;;0.50;0.50;;;;;;;7.19;100.00;99776.47;5149491;27;20209;-64
2022/12/01 05:55:02;;;;;;;0.60;0.60;;;;;;;7.11;100.00;99760.41;5126305;27;20202;-64
2022/12/01 05:57:30;;;;;;;0.73;0.73;;;;;;;7.14;100.00;99780.75;5130577;27;20202;-64
2022/12/01 05:59:56;;;;;;;0.47;0.47;;;;;;;7.10;100.00;99774.03;5130937;27;20653;-64
2022/12/01 06:02:25;;;;;;;0.60;0.60;;;;;;;7.14;100.00;99779.94;5133763;27;20692;-64
2022/12/01 06:04:52;;;;;;;0.57;0.57;;;;;;;7.12;100.00;99771.44;5130671;27;20229;-64
2022/12/01 06:07:19;;;;;;;0.50;0.50;;;;;;;7.15;100.00;99782.47;5133110;27;20210;-65
2022/12/01 06:09:46;;;;;;;0.50;0.50;;;;;;;7.17;100.00;99785.81;5132143;27;20701;-64
2022/12/01 06:12:13;;;;;;;0.60;0.60;;;;;;;6.98;100.00;99769.03;5128899;27;20247;-64
2022/12/01 06:14:40;;;;;;;0.53;0.53;;;;;;;7.04;100.00;99784.28;5132671;27;20205;-64
2022/12/01 06:17:07;;;;;;;0.87;0.87;;;;;;;6.96;100.00;99778.41;5133089;27;20661;-64
2022/12/01 06:19:35;;;;;;;0.50;0.50;;;;;;;7.01;100.00;99784.28;5132969;27;20243;-65
2022/12/01 06:22:02;;;;;;;0.60;0.60;;;;;;;6.97;100.00;99782.66;5132576;27;20201;-65
2022/12/01 06:24:28;;;;;;;0.40;0.40;;;;;;;6.91;100.00;99787.81;5132644;27;20223;-65
2022/12/01 06:26:55;;;;;;;0.60;0.60;;;;;;;6.91;100.00;99782.72;5132397;27;20202;-65
2022/12/01 06:29:22;;;;;;;0.57;0.57;;;;;;;6.93;100.00;99791.19;5132178;27;20217;-65
2022/12/01 06:31:49;;;;;;;0.40;0.40;;;;;;;6.93;100.00;99791.19;5145206;27;20664;-63
2022/12/01 06:34:15;;;;;;;0.50;0.50;;;;;;;6.85;100.00;99787.84;5147119;27;20194;-63
2022/12/01 06:36:44;;;;;;;0.43;0.43;;;;;;;6.76;100.00;99798.97;5131803;27;20198;-64
2022/12/01 06:39:10;;;;;;;0.40;0.40;;;;;;;6.72;100.00;99778.66;5129570;27;20194;-63
2022/12/01 06:41:37;;;;;;;0.50;0.50;;;;;;;6.79;100.00;99793.84;5132338;27;20195;-65
2022/12/01 06:44:04;;;;;;;0.60;0.60;;;;;;;6.80;100.00;99794.69;5132238;27;20194;-63
2022/12/01 06:46:31;;;;;;;0.57;0.57;;;;;;;6.78;100.00;99801.53;5132442;27;20190;-63
2022/12/01 06:48:58;;;;;;;0.60;0.60;;;;;;;6.77;100.00;99802.38;5132148;27;20214;-64
2022/12/01 06:51:25;;;;;;;0.60;0.60;;;;;;;6.74;100.00;99804.94;5132215;27;20258;-63
2022/12/01 06:53:54;;;;;;;0.50;0.50;;;;;;;6.63;100.00;99773.59;5129433;27;20274;-63
2022/12/01 06:56:22;;;;;;;0.50;0.50;;;;;;;6.78;100.00;99801.53;5128123;27;20598;-64
2022/12/01 06:58:49;;;;;;;0.50;0.50;;;;;;;6.76;100.00;99795.56;5129707;27;20202;-65
2022/12/01 07:01:16;;;;;;;0.70;0.70;;;;;;;6.81;100.00;99798.94;5132061;27;20321;-65
2022/12/01 07:03:46;;;;;;;0.60;0.60;;;;;;;6.77;100.00;99799.81;5130529;27;20224;-65
2022/12/01 07:06:13;;;;;;;0.60;0.60;;;;;;;6.73;100.00;99798.16;5128360;27;20210;-64
2022/12/01 07:08:40;;;;;;;0.60;0.60;;;;;;;6.66;100.00;99786.31;5128411;27;20199;-64
2022/12/01 07:11:11;;;;;;;0.50;0.50;;;;;;;6.73;100.00;99800.69;5131021;27;20703;-64
2022/12/01 07:13:38;;;;;;;1.27;1.23;;;;;;;6.78;100.00;99798.97;5131540;27;20282;-65
2022/12/01 07:16:06;;;;;;;0.80;0.80;;;;;;;6.70;100.00;99798.19;5148182;27;20199;-64
2022/12/01 07:18:34;;;;;;;0.50;0.50;;;;;;;6.76;100.00;99803.22;5138157;27;20197;-64
2022/12/01 07:21:01;;;;;;;0.40;0.40;;;;;;;6.81;100.00;99798.94;5152389;27;20265;-64
2022/12/01 07:23:28;;;;;;;0.40;0.40;;;;;;;6.84;100.00;99797.22;5126619;27;20194;-65
2022/12/01 07:25:59;;;;;;;0.40;0.40;;;;;;;6.86;100.00;99799.72;5134452;27;20201;-65
2022/12/01 07:28:27;;;;;;;0.50;0.50;;;;;;;6.91;100.00;99792.91;5125824;27;20202;-65
2022/12/01 07:30:54;;;;;;;0.60;0.60;;;;;;;6.94;100.00;99805.63;5126311;27;20658;-65
2022/12/01 07:33:20;;;;;;;0.50;0.50;;;;;;;6.99;100.00;99803.88;5128101;27;20201;-65
2022/12/01 07:35:47;;;;;;;0.57;0.57;;;;;;;6.99;100.00;99801.31;5126624;27;20509;-65
2022/12/01 07:38:14;;;;;;;0.40;0.40;;;;;;;7.00;100.00;99808.13;5131197;27;20314;-65
2022/12/01 07:40:41;;;;;;;0.60;0.60;;;;;;;6.83;100.00;99789.56;5129258;27;20190;-66
2022/12/01 07:43:08;;;;;;;0.43;0.43;;;;;;;6.90;100.00;99811.59;5138021;27;20209;-66
2022/12/01 07:45:37;;;;;;;0.50;0.50;;;;;;;6.95;100.00;99804.75;5139990;27;20201;-63
2022/12/01 07:48:04;;;;;;;0.50;0.50;;;;;;;6.93;100.00;99814.13;5138741;27;20198;-64
2022/12/01 07:50:31;;;;;;;0.50;0.50;;;;;;;6.94;100.00;99810.72;5134484;27;20221;-63
2022/12/01 07:52:58;;;;;;;0.53;0.53;;;;;;;6.88;100.00;99818.44;5127778;27;20198;-63
2022/12/01 07:55:24;;;;;;;0.60;0.60;;;;;;;6.87;100.00;99806.53;5137818;27;20220;-63
2022/12/01 07:57:52;;;;;;;0.70;0.70;;;;;;;6.88;100.00;99808.22;5142845;27;20261;-65
2022/12/01 08:00:19;;;;;;;0.50;0.50;;;;;;;6.83;100.00;99815.06;5137780;27;20695;-64
2022/12/01 08:02:49;;;;;;;0.87;0.87;;;;;;;6.84;100.00;99811.66;5144893;27;20194;-64
2022/12/01 08:05:16;;;;;;;0.43;0.43;;;;;;;6.90;100.00;99810.75;5135695;27;20653;-63
2022/12/01 08:07:43;;;;;;;0.60;0.60;;;;;;;6.91;100.00;99813.31;5133615;27;20205;-65
2022/12/01 08:10:10;;;;;;;0.60;0.60;;;;;;;6.95;100.00;99811.56;5142562;27;20214;-64
2022/12/01 08:12:37;;;;;;;0.47;0.47;;;;;;;6.97;100.00;99817.50;5137189;27;20198;-63
2022/12/01 08:15:05;;;;;;;0.60;0.60;;;;;;;6.99;100.00;99811.50;5140662;27;20231;-64
2022/12/01 08:17:31;;;;;;;0.60;0.60;;;;;;;6.98;100.00;99814.91;5134935;27;20212;-64
2022/12/01 08:20:00;;;;;;;0.50;0.50;;;;;;;7.00;100.00;99808.13;5137611;27;20247;-64
2022/12/01 08:22:26;;;;;;;0.50;0.50;;;;;;;6.86;100.00;99797.19;5138700;27;20657;-65
2022/12/01 08:24:53;;;;;;;0.47;0.47;;;;;;;7.00;100.00;99808.13;5142188;27;20216;-63
2022/12/01 08:27:20;;;;;;;0.60;0.60;;;;;;;6.80;100.00;99789.59;5139775;27;20210;-66
2022/12/01 08:29:47;;;;;;;0.70;0.70;;;;;;;6.83;100.00;99809.94;5135138;27;20218;-64
2022/12/01 08:32:13;;;;;;;0.60;0.60;;;;;;;6.86;100.00;99815.88;5141596;27;20205;-64
2022/12/01 08:34:40;;;;;;;0.57;0.57;;;;;;;6.75;100.00;99811.75;5136070;27;20198;-63
2022/12/01 08:37:08;;;;;;;0.47;0.47;;;;;;;6.78;100.00;99807.47;5132690;27;20198;-63
2022/12/01 08:39:35;;;;;;;0.50;0.50;;;;;;;6.83;100.00;99808.25;5136544;27;20707;-64
2022/12/01 08:42:02;;;;;;;0.60;0.60;;;;;;;6.81;100.00;99799.78;5128342;27;20312;-64
2022/12/01 08:44:29;;;;;;;0.47;0.47;;;;;;;6.86;100.00;99799.72;5123567;27;20679;-65
2022/12/01 08:46:56;;;;;;;0.50;0.50;;;;;;;6.92;100.00;99794.56;5127253;27;20255;-65
2022/12/01 08:49:22;;;;;;;0.60;0.60;;;;;;;6.97;100.00;99792.84;5130415;27;20213;-64
2022/12/01 08:51:49;;;;;;;1.97;0.90;;;;;;;6.98;100.00;99786.88;5126766;27;20577;-65
2022/12/01 08:54:18;;;;;;;0.73;0.73;;;;;;;6.95;100.00;99789.44;5132148;27;20202;-64
2022/12/01 08:56:45;;;;;;;0.70;0.70;;;;;;;6.90;100.00;99783.56;5134508;27;20190;-64
2022/12/01 08:59:12;;;;;;;0.90;0.90;;;;;;;6.93;100.00;99786.09;5128911;27;20271;-64
2022/12/01 09:01:52;;;;;;;0.60;0.60;;;;;;;7.00;100.00;99792.81;5139717;27;20206;-63
2022/12/01 09:04:19;;;;;;;0.60;0.60;;;;;;;6.82;100.00;99762.38;5134588;27;20305;-64
2022/12/01 09:06:48;;;;;;;0.70;0.70;;;;;;;7.00;100.00;99782.63;5131904;27;20213;-64
2022/12/01 09:09:18;;;;;;;0.50;0.50;;;;;;;6.81;100.00;99751.38;5131373;27;20294;-64
2022/12/01 09:11:45;;;;;;;0.60;0.60;;;;;;;7.10;100.00;99788.47;5132385;27;20209;-63
2022/12/01 09:14:14;;;;;;;1.93;1.70;;;;;;;7.15;100.00;99782.47;5129111;27;20218;-65
2022/12/01 09:16:42;;;;;;;0.47;0.47;;;;;;;7.08;100.00;99779.97;5126343;27;20195;-65
2022/12/01 09:19:10;;;;;;;0.80;0.80;;;;;;;7.15;100.00;99782.47;5126577;27;20198;-64
2022/12/01 09:21:37;;;;;;;0.60;0.60;;;;;;;7.16;100.00;99770.56;5125361;27;20872;-64
2022/12/01 09:24:08;;;;;;;0.80;0.80;;;;;;;7.25;100.00;99778.97;5124945;27;20206;-64
2022/12/01 09:26:36;;;;;;;0.70;0.70;;;;;;;7.28;100.00;99773.81;5124761;27;20227;-64
2022/12/01 09:29:06;;;;;;;0.50;0.50;;;;;;;7.27;100.00;99782.31;5124197;27;20195;-65
2022/12/01 09:31:34;;;;;;;0.53;0.53;;;;;;;7.28;100.00;99773.81;5128338;27;20209;-65
2022/12/01 09:34:03;;;;;;;0.50;0.50;;;;;;;7.30;100.00;99766.16;5137124;27;20210;-65
2022/12/01 09:36:31;;;;;;;0.60;0.60;;;;;;;7.27;100.00;99769.56;5131943;27;20198;-64
2022/12/01 09:38:58;;;;;;;0.63;0.63;;;;;;;7.19;100.00;99773.94;5140575;27;20206;-64
2022/12/01 09:41:28;;;;;;;0.53;0.53;;;;;;;7.16;100.00;99773.13;5141257;27;20201;-64
2022/12/01 09:44:04;;;;;;;0.60;0.60;;;;;;;7.14;100.00;99770.56;5136977;27;20200;-64
2022/12/01 09:46:40;;;;;;;0.50;0.50;;;;;;;7.20;100.00;99759.47;5132810;27;20225;-64
2022/12/01 09:49:15;;;;;;;0.60;0.60;;;;;;;7.20;100.00;99760.31;5132198;27;20241;-65
2022/12/01 09:51:42;;;;;;;0.63;0.63;;;;;;;7.12;100.00;99757.00;5133786;27;20204;-65
2022/12/01 09:54:12;;;;;;;0.50;0.50;;;;;;;7.20;100.00;99750.13;5136707;27;20201;-65
2022/12/01 09:56:44;;;;;;;0.50;0.50;;;;;;;7.22;100.00;99748.41;5133188;27;20209;-65
2022/12/01 09:59:19;;;;;;;0.70;0.70;;;;;;;7.22;100.00;99748.41;5140514;27;20206;-64
2022/12/01 10:01:50;;;;;;;0.60;0.60;;;;;;;7.28;100.00;99743.22;5131456;27;20641;-66
2022/12/01 10:04:20;;;;;;;0.53;0.53;;;;;;;7.30;100.00;99746.59;5134730;27;20229;-64
2022/12/01 10:06:54;;;;;;;0.50;0.50;;;;;;;7.28;100.00;99738.13;5130849;27;20202;-65
2022/12/01 10:09:27;;;;;;;0.57;0.57;;;;;;;7.38;100.00;99744.81;5126451;27;20191;-64
2022/12/01 10:12:01;;;;;;;0.60;0.60;;;;;;;7.49;100.00;99754.03;5135305;27;20198;-65
2022/12/01 10:14:32;;;;;;;0.50;0.50;;;;;;;7.49;100.00;99754.91;5136146;27;20208;-64
2022/12/01 10:17:06;;;;;;;0.80;0.80;;;;;;;7.52;100.00;99756.56;5131621;27;20210;-64
2022/12/01 10:19:38;;;;;;;0.50;0.50;;;;;;;7.57;100.00;99749.69;5130647;27;20202;-66
2022/12/01 10:22:29;;;;;;;0.53;0.53;;;;;;;7.56;100.00;99753.09;5127435;27;21066;-66
2022/12/01 10:25:06;;;;;;;0.50;0.50;;;;;;;7.61;100.00;99752.19;5126518;27;20205;-65
2022/12/01 10:27:47;;;;;;;0.60;0.60;;;;;;;7.67;100.00;99746.16;5133558;27;20206;-66
2022/12/01 10:30:17;;;;;;;0.47;0.47;;;;;;;7.73;100.00;99746.06;5129468;27;20232;-66
2022/12/01 10:32:51;;;;;;;0.50;0.50;;;;;;;7.59;100.00;99742.88;5131615;27;20198;-66
2022/12/01 10:35:20;;;;;;;0.50;0.50;;;;;;;7.44;100.00;99720.94;5136621;27;20209;-66
2022/12/01 10:37:50;;;;;;;0.60;0.60;;;;;;;7.66;100.00;99739.34;5136910;27;20626;-66
2022/12/01 10:40:18;;;;;;;0.50;0.50;;;;;;;7.58;100.00;99746.28;5136669;27;20198;-66
2022/12/01 10:42:46;;;;;;;0.47;0.47;;;;;;;7.58;100.00;99742.00;5132677;27;20605;-66
2022/12/01 10:45:18;;;;;;;0.60;0.60;;;;;;;7.60;100.00;99726.66;5144279;27;20267;-66
2022/12/01 10:48:09;;;;;;;0.60;0.60;;;;;;;7.62;100.00;99728.38;5132310;27;20197;-66
2022/12/01 10:50:36;;;;;;;0.50;0.50;;;;;;;7.54;100.00;99708.91;5138783;27;20266;-66
2022/12/01 10:53:03;;;;;;;0.50;0.50;;;;;;;7.73;100.00;99729.06;5126281;27;20198;-65
2022/12/01 10:55:35;;;;;;;0.50;0.50;;;;;;;7.70;100.00;99725.69;5123568;27;20255;-66
2022/12/01 10:58:12;;;;;;;0.50;0.50;;;;;;;7.60;100.00;99722.41;5126634;27;20685;-66
2022/12/01 11:00:43;;;;;;;0.43;0.43;;;;;;;7.46;100.00;99726.03;5136527;27;20246;-66
2022/12/01 11:03:19;;;;;;;0.50;0.50;;;;;;;7.45;100.00;99727.72;5135675;27;20257;-66
2022/12/01 11:05:52;;;;;;;0.70;0.70;;;;;;;7.36;100.00;99721.03;5134122;27;20258;-66
2022/12/01 11:08:24;;;;;;;0.60;0.60;;;;;;;7.29;100.00;99716.88;5131592;27;20233;-67
2022/12/01 11:10:52;;;;;;;0.50;0.50;;;;;;;7.31;100.00;99716.84;5135940;27;20295;-66
2022/12/01 11:13:23;;;;;;;1.00;1.00;;;;;;;7.40;100.00;99721.81;5138464;27;20255;-66
2022/12/01 11:15:54;;;;;;;0.60;0.60;;;;;;;7.44;100.00;99720.94;5135921;27;20232;-66
2022/12/01 11:18:23;;;;;;;0.60;0.60;;;;;;;7.47;100.00;99713.22;5127826;27;20207;-66
2022/12/01 11:21:06;;;;;;;0.60;0.60;;;;;;;7.47;100.00;99720.03;5129711;27;20194;-66
2022/12/01 11:23:35;;;;;;;0.50;0.50;;;;;;;7.49;100.00;99715.78;5133687;27;20201;-65
2022/12/01 11:26:07;;;;;;;0.90;0.90;;;;;;;7.52;100.00;99715.75;5139416;27;20200;-66
2022/12/01 11:28:36;;;;;;;0.90;0.90;;;;;;;7.57;100.00;99714.81;5128933;27;20202;-66
2022/12/01 11:31:07;;;;;;;0.63;0.63;;;;;;;7.50;100.00;99713.19;5133384;27;20313;-67
2022/12/01 11:33:42;;;;;;;0.47;0.47;;;;;;;7.43;100.00;99706.50;5124818;27;20263;-66
2022/12/01 11:36:09;;;;;;;0.50;0.50;;;;;;;7.47;100.00;99707.28;5135073;27;20201;-65
2022/12/01 11:38:36;;;;;;;0.60;0.60;;;;;;;7.50;100.00;99712.34;5126697;27;20195;-66
2022/12/01 11:41:03;;;;;;;0.67;0.67;;;;;;;7.53;100.00;99702.13;5133302;27;20202;-67
2022/12/01 11:43:33;;;;;;;0.50;0.50;;;;;;;7.55;100.00;99708.03;5129241;27;20594;-66
2022/12/01 11:46:03;;;;;;;0.70;0.70;;;;;;;7.54;100.00;99703.78;5132409;27;20263;-66
2022/12/01 11:48:34;;;;;;;0.53;0.53;;;;;;;7.58;100.00;99705.44;5130157;27;20201;-66
2022/12/01 11:51:04;;;;;;;0.50;0.50;;;;;;;7.58;100.00;99710.56;5134829;27;20220;-66
2022/12/01 11:53:34;;;;;;;0.50;0.50;;;;;;;7.59;100.00;99707.16;5128080;27;20205;-66